Aeroporto :
LOGIN :

Iscrizione | Disclaimer

   EN    FR    IT 

 










Sommario :    VFR   VFR Marginale   IFR   IFR Intensivo   IFR Molto Intensivo
Visibilità : 
Base nubi : 
>= 8 km
>= 3000ft
5 / 8 km
1000 / 3000 ft
1500m / 5 km
500 / 1000 ft
800 / 1500m
200 / 500 ft
< 800m
< 200 ft
Simboli :   Temporali  Nebbia  Neve Forte  Precipitazioni Forti  Vento > 20 kt
SIGMETs :   Varie  Temporali  Ghiacco  Turbolenza  Onda orograficha  Ceneri Vulcaniche






- Altitudine del aeroporto : 359 ft
- Codice IATA : BVA


LFOB - Beauvais

ULTIMO METAR :
  • 291400Z AUTO 24018KT 9999 FEW045/// BKN070/// BKN086/// ///TCU 07/03 Q0994 TEMPO 25025G50KT 1200 TSRAGS BKN030CB

METARs OBSOLETI :
  • 291330Z AUTO 26017KT 8000 -RA FEW021/// BKN028/// BKN033/// ///TCU 06/04 Q0993 TEMPO 25025G50KT 1200 TSRAGS BKN030CB
  • 291300Z AUTO 25018G29KT 9999 FEW028/// BKN034/// BKN042/// ///TCU 10/04 Q0992 TEMPO 25025G50KT 1200 TSRAGS BKN030CB
  • 291230Z AUTO 25020KT 220V280 9999 FEW026 SCT034 BKN150 09/05 Q0992 TEMPO 25025G50KT 1200 TSRAGS BKN030CB
  • 291200Z AUTO 26018KT 9999 BKN020 BKN043 BKN090 09/05 Q0992 BECMG 25020G35KT
  • 291130Z AUTO 27019KT 9999 BKN020 BKN066 BKN082 08/05 Q0991 BECMG 25020G35KT
  • 291100Z AUTO 28024KT 9999 -RA FEW018/// SCT028/// BKN045/// ///TCU 08/05 Q0990 TEMPO 3000 RA BKN008 BKN025CB BECMG 25020G35KT

TAF AMD TAF LFOB
Valido dal 29 a 12 ore il 01 a 12 ore UTC


291255Z 2912/0112 25020G35KT 9999 BKN030
TEMPO 2912/2918 4000 SHRA BKN030CB
PROB40
TEMPO 2913/2916 25025G50KT 1200 TSRAGS
BECMG 0101/0103 24015G25KT
TEMPO 0107/0109 BKN008
BECMG 0109/0112 16013KT 3000 RA OVC012
ATIS : +33 3 44 11 49 28



MetMap, La meteo Aeronautica in un colpo d'occhio ! - Copyright ORBIFLY Dicembre 2007 - Disclaimer

ORBIFLY MET'MAP TEAM :

Programmazione e sviluppo : Alexandra Zaïnal
Concezione : Baudouin d'Aumeries
Aiuto per la programmazione : Marc-Olivier Méhu
Supporto tecnico e logistico : Manuel Goepfert
Aiuto per la traduzione : Arnaldo La Scala

Contatto : metmap@orbifly.com




FONTI E CREDITI :

   NOAA